createdAt,value
2016-09-20T00:00:28.926Z,99.99
2016-09-20T00:01:28.935Z,99.99
2016-09-20T00:02:28.860Z,99.99
2016-09-20T00:03:28.863Z,99.99
2016-09-20T00:04:28.950Z,99.99
2016-09-20T00:05:28.913Z,99.99
2016-09-20T00:06:28.951Z,99.99
2016-09-20T00:07:28.936Z,99.99
2016-09-20T00:08:28.911Z,99.99
2016-09-20T00:09:28.963Z,99.99
2016-09-20T00:10:28.883Z,99.99
2016-09-20T00:11:28.924Z,99.99
2016-09-20T00:12:28.958Z,99.99
2016-09-20T00:13:28.930Z,99.99
2016-09-20T00:14:28.981Z,99.99
2016-09-20T00:15:29.022Z,99.99
2016-09-20T00:16:28.887Z,99.99
2016-09-20T00:17:28.981Z,99.99
2016-09-20T00:18:28.971Z,99.99
2016-09-20T00:19:28.976Z,99.99
2016-09-20T00:20:28.980Z,99.99
2016-09-20T00:21:28.992Z,99.99
2016-09-20T00:22:28.998Z,99.99
2016-09-20T00:23:28.959Z,99.99
2016-09-20T00:24:28.959Z,99.99
2016-09-20T00:25:28.993Z,99.99
2016-09-20T00:26:28.966Z,99.99
2016-09-20T00:27:29.007Z,99.99
2016-09-20T00:28:28.966Z,99.99
2016-09-20T00:29:28.955Z,99.99
2016-09-20T00:30:28.933Z,99.99
2016-09-20T00:31:29.012Z,99.99
2016-09-20T00:32:29.019Z,99.99
2016-09-20T00:33:28.940Z,99.99
2016-09-20T00:34:28.947Z,99.99
2016-09-20T00:35:28.956Z,99.99
2016-09-20T00:36:28.961Z,99.99
2016-09-20T00:37:29.002Z,99.99
2016-09-20T00:38:29.039Z,99.99
2016-09-20T00:39:28.962Z,99.99
2016-09-20T00:40:29.054Z,99.99
2016-09-20T00:41:28.969Z,99.99
2016-09-20T00:42:28.970Z,99.99
2016-09-20T00:43:29.019Z,99.99
2016-09-20T00:44:29.001Z,99.99
2016-09-20T00:45:29.058Z,99.99
2016-09-20T00:46:29.060Z,99.99
2016-09-20T00:47:28.986Z,99.99
2016-09-20T00:48:29.039Z,99.99
2016-09-20T00:49:29.016Z,99.99
2016-09-20T00:50:29.034Z,99.99
2016-09-20T00:51:29.025Z,99.99
2016-09-20T00:52:29.011Z,99.99
2016-09-20T00:53:29.076Z,99.99
2016-09-20T00:54:29.082Z,99.99
2016-09-20T00:55:29.034Z,99.99
2016-09-20T00:56:29.082Z,99.99
2016-09-20T00:57:29.080Z,99.99
2016-09-20T00:58:29.049Z,99.99
2016-09-20T00:59:29.046Z,99.99
2016-09-20T01:00:29.094Z,99.99
2016-09-20T01:01:29.022Z,99.99
2016-09-20T01:02:29.026Z,99.99
2016-09-20T01:03:29.033Z,99.99
2016-09-20T01:04:29.115Z,99.99
2016-09-20T01:05:29.123Z,99.99
2016-09-20T01:06:29.123Z,99.99
2016-09-20T01:07:29.120Z,99.99
2016-09-20T01:08:29.127Z,99.99
2016-09-20T01:09:29.129Z,99.99
2016-09-20T01:10:29.126Z,99.99
2016-09-20T01:11:29.105Z,99.99
2016-09-20T01:12:29.131Z,99.99
2016-09-20T01:13:29.141Z,99.99
2016-09-20T01:14:29.096Z,99.99
2016-09-20T01:15:29.073Z,99.99
2016-09-20T01:16:29.153Z,99.99
2016-09-20T01:17:29.078Z,99.99
2016-09-20T01:18:29.146Z,99.99
2016-09-20T01:19:29.107Z,99.99
2016-09-20T01:20:29.148Z,99.99
2016-09-20T01:21:29.166Z,99.99
2016-09-20T01:22:29.116Z,99.99
2016-09-20T01:23:29.100Z,99.99
2016-09-20T01:24:29.180Z,99.99
2016-09-20T01:25:29.090Z,99.99
2016-09-20T01:26:29.182Z,99.99
2016-09-20T01:27:29.093Z,99.99
2016-09-20T01:28:29.181Z,99.99
2016-09-20T01:29:29.141Z,99.99
2016-09-20T01:30:29.106Z,99.99
2016-09-20T01:31:29.108Z,99.99
2016-09-20T01:32:29.191Z,99.99
2016-09-20T01:33:29.142Z,99.99
2016-09-20T01:34:29.121Z,99.99
2016-09-20T01:35:29.185Z,99.99
2016-09-20T01:36:29.188Z,99.99
2016-09-20T01:37:29.196Z,99.99
2016-09-20T01:38:29.176Z,99.99
2016-09-20T01:39:29.172Z,99.99
2016-09-20T01:40:29.134Z,99.99
2016-09-20T01:41:29.198Z,99.99
2016-09-20T01:42:29.182Z,99.99
2016-09-20T01:43:29.212Z,99.99
2016-09-20T01:44:29.219Z,99.99
2016-09-20T01:45:29.226Z,99.99
2016-09-20T01:46:29.188Z,99.99
2016-09-20T01:47:29.235Z,99.99
2016-09-20T01:48:29.155Z,99.99
2016-09-20T01:49:29.188Z,99.99
2016-09-20T01:50:29.234Z,99.99
2016-09-20T01:51:29.201Z,99.99
2016-09-20T01:52:29.244Z,99.99
2016-09-20T01:53:29.251Z,99.99
2016-09-20T01:54:29.255Z,99.99
2016-09-20T01:55:29.247Z,99.99
2016-09-20T01:56:29.180Z,99.99
2016-09-20T01:57:29.179Z,99.99
2016-09-20T01:58:29.222Z,99.99
2016-09-20T01:59:29.185Z,99.99
2016-09-20T02:00:29.269Z,99.99
2016-09-20T02:01:29.268Z,99.99
2016-09-20T02:02:29.225Z,99.99
2016-09-20T02:03:29.202Z,99.99
2016-09-20T02:04:29.242Z,99.99
2016-09-20T02:05:29.206Z,99.99
2016-09-20T02:06:29.229Z,99.99
2016-09-20T02:07:29.293Z,99.99
2016-09-20T02:08:29.246Z,99.99
2016-09-20T02:09:29.248Z,99.99
2016-09-20T02:10:29.247Z,99.99
2016-09-20T02:11:29.298Z,99.99
2016-09-20T02:12:29.295Z,99.99
2016-09-20T02:13:29.254Z,99.99
2016-09-20T02:14:29.270Z,99.99
2016-09-20T02:15:29.303Z,99.99
2016-09-20T02:16:29.310Z,99.99
2016-09-20T02:17:29.281Z,99.99
2016-09-20T02:18:29.317Z,99.99
2016-09-20T02:19:29.318Z,99.99
2016-09-20T02:20:29.328Z,99.99
2016-09-20T02:21:29.288Z,99.99
2016-09-20T02:22:29.279Z,99.99
2016-09-20T02:23:29.329Z,99.99
2016-09-20T02:24:29.333Z,99.99
2016-09-20T02:25:29.268Z,99.99
2016-09-20T02:26:29.293Z,99.99
2016-09-20T02:27:29.299Z,99.99
2016-09-20T02:28:29.277Z,99.99
2016-09-20T02:29:29.343Z,99.99
2016-09-20T02:30:29.348Z,99.99
2016-09-20T02:31:29.356Z,99.99
2016-09-20T02:32:29.355Z,99.99
2016-09-20T02:33:29.478Z,99.99
2016-09-20T02:34:29.329Z,99.99
2016-09-20T02:35:29.369Z,99.99
2016-09-20T02:36:29.285Z,99.99
2016-09-20T02:37:29.368Z,99.99
2016-09-20T02:38:29.373Z,99.99
2016-09-20T02:39:29.377Z,99.99
2016-09-20T02:40:29.340Z,99.99
2016-09-20T02:41:29.382Z,99.99
2016-09-20T02:42:29.377Z,99.99
2016-09-20T02:43:29.385Z,99.99
2016-09-20T02:44:29.387Z,99.99
2016-09-20T02:45:29.384Z,99.99
2016-09-20T02:46:29.399Z,99.99
2016-09-20T02:47:29.411Z,99.99
2016-09-20T02:48:29.393Z,99.99
2016-09-20T02:49:29.409Z,99.99
2016-09-20T02:50:29.335Z,99.99
2016-09-20T02:51:29.330Z,99.99
2016-09-20T02:52:29.417Z,99.99
2016-09-20T02:53:29.366Z,99.99
2016-09-20T02:54:29.335Z,99.99
2016-09-20T02:55:29.380Z,99.99
2016-09-20T02:56:29.439Z,99.99
2016-09-20T02:57:29.354Z,99.99
2016-09-20T02:58:29.425Z,99.99
2016-09-20T02:59:29.358Z,99.99
2016-09-20T03:00:29.439Z,99.99
2016-09-20T03:01:29.388Z,99.99
2016-09-20T03:02:29.360Z,99.99
2016-09-20T03:03:29.435Z,99.99
2016-09-20T03:04:29.402Z,99.99
2016-09-20T03:05:29.449Z,99.99
2016-09-20T03:06:29.446Z,99.99
2016-09-20T03:07:29.379Z,99.99
2016-09-20T03:08:29.379Z,99.99
2016-09-20T03:09:29.460Z,99.99
2016-09-20T03:10:29.455Z,99.99
2016-09-20T03:11:29.470Z,99.99
2016-09-20T03:12:29.496Z,99.99
2016-09-20T03:13:29.432Z,99.99
2016-09-20T03:14:29.472Z,99.99
2016-09-20T03:15:29.477Z,99.99
2016-09-20T03:16:29.410Z,99.99
2016-09-20T03:17:29.443Z,99.99
2016-09-20T03:18:29.406Z,99.99
2016-09-20T03:19:29.419Z,99.99
2016-09-20T03:20:29.416Z,99.99
2016-09-20T03:21:29.497Z,99.99
2016-09-20T03:22:29.420Z,99.99
2016-09-20T03:23:29.427Z,99.99
2016-09-20T03:24:29.424Z,99.99
2016-09-20T03:25:29.505Z,99.99
2016-09-20T03:26:29.454Z,99.99
2016-09-20T03:27:29.488Z,99.99
2016-09-20T03:28:29.520Z,99.99
2016-09-20T03:29:29.524Z,99.99
2016-09-20T03:30:29.511Z,99.99
2016-09-20T03:31:29.515Z,99.99
2016-09-20T03:32:29.521Z,99.99
2016-09-20T03:33:29.459Z,99.99
2016-09-20T03:34:29.450Z,99.99
2016-09-20T03:35:32.362Z,99.99
2016-09-20T03:36:29.572Z,99.99
2016-09-20T03:37:29.539Z,99.99
2016-09-20T03:38:29.557Z,99.99
2016-09-20T03:39:29.482Z,99.99
2016-09-20T03:40:29.545Z,99.99
2016-09-20T03:41:29.558Z,99.99
2016-09-20T03:42:29.563Z,99.99
2016-09-20T03:43:29.545Z,99.99
2016-09-20T03:44:29.490Z,99.99
2016-09-20T03:45:29.516Z,99.99
2016-09-20T03:46:29.565Z,99.99
2016-09-20T03:47:29.521Z,99.99
2016-09-20T03:48:29.487Z,99.99
2016-09-20T03:49:29.527Z,99.99
2016-09-20T03:50:29.561Z,99.99
2016-09-20T03:51:29.589Z,99.99
2016-09-20T03:52:29.590Z,99.99
2016-09-20T03:53:29.569Z,99.99
2016-09-20T03:54:29.602Z,99.99
2016-09-20T03:55:29.603Z,99.99
2016-09-20T03:56:29.611Z,99.99
2016-09-20T03:57:29.539Z,99.99
2016-09-20T03:59:29.529Z,99.99
2016-09-20T04:00:29.532Z,99.99
2016-09-20T04:01:29.599Z,99.99
2016-09-20T04:02:29.580Z,99.99
2016-09-20T04:03:29.574Z,99.99
2016-09-20T04:04:29.569Z,99.99
2016-09-20T04:05:29.581Z,99.99
2016-09-20T04:06:29.613Z,99.99
2016-09-20T04:07:29.622Z,99.99
2016-09-20T04:08:29.615Z,99.99
2016-09-20T04:09:29.550Z,99.99
2016-09-20T04:10:29.625Z,99.99
2016-09-20T04:11:29.621Z,99.99
2016-09-20T04:12:29.636Z,99.99
2016-09-20T04:13:29.636Z,99.99
2016-09-20T04:14:29.564Z,99.99
2016-09-20T04:15:29.566Z,99.99
2016-09-20T04:16:29.596Z,99.99
2016-09-20T04:17:29.573Z,99.99
2016-09-20T04:18:29.643Z,99.99
2016-09-20T04:19:29.584Z,99.99
2016-09-20T04:20:29.649Z,99.99
2016-09-20T04:21:29.586Z,99.99
2016-09-20T04:22:29.673Z,99.99
2016-09-20T04:23:29.668Z,99.99
2016-09-20T04:24:29.692Z,99.99
2016-09-20T04:25:29.672Z,99.99
2016-09-20T04:26:29.665Z,99.99
2016-09-20T04:27:29.610Z,99.99
2016-09-20T04:28:29.656Z,99.99
2016-09-20T04:29:29.657Z,99.99
2016-09-20T04:30:29.617Z,99.99
2016-09-20T04:31:29.603Z,99.99
2016-09-20T04:32:29.630Z,99.99
2016-09-20T04:33:29.619Z,99.99
2016-09-20T04:34:29.696Z,99.99
2016-09-20T04:35:29.696Z,99.99
2016-09-20T04:36:29.625Z,99.99
2016-09-20T04:37:29.705Z,99.99
2016-09-20T04:38:29.698Z,99.99
2016-09-20T04:39:29.709Z,99.99
2016-09-20T04:40:29.633Z,99.99
2016-09-20T04:41:29.727Z,99.99
2016-09-20T04:42:29.723Z,99.99
2016-09-20T04:43:29.686Z,99.99
2016-09-20T04:44:29.724Z,99.99
2016-09-20T04:45:29.734Z,99.99
2016-09-20T04:46:29.696Z,99.99
2016-09-20T04:47:29.733Z,99.99
2016-09-20T04:48:29.733Z,99.99
2016-09-20T04:49:29.665Z,99.99
2016-09-20T04:50:29.676Z,99.99
2016-09-20T04:51:29.683Z,99.99
2016-09-20T04:52:29.738Z,99.99
2016-09-20T04:53:29.748Z,99.99
2016-09-20T04:54:29.731Z,99.99
2016-09-20T04:55:29.713Z,99.99
2016-09-20T04:56:29.756Z,99.99
2016-09-20T04:57:29.750Z,99.99
2016-09-20T04:58:29.705Z,99.99
2016-09-20T04:59:29.799Z,99.99
2016-09-20T05:00:29.689Z,99.99
2016-09-20T05:01:29.697Z,99.99
2016-09-20T05:02:29.706Z,99.99
2016-09-20T05:03:29.745Z,99.99
2016-09-20T05:04:29.777Z,99.99
2016-09-20T05:05:29.784Z,99.99
2016-09-20T05:06:29.787Z,99.99
2016-09-20T05:07:29.798Z,99.99
2016-09-20T05:08:29.787Z,99.99
2016-09-20T05:09:29.797Z,99.99
2016-09-20T05:10:29.802Z,99.99
2016-09-20T05:11:29.810Z,99.99
2016-09-20T05:12:29.799Z,99.99
2016-09-20T05:13:29.741Z,99.99
2016-09-20T05:14:29.772Z,99.99
2016-09-20T05:15:29.732Z,99.99
2016-09-20T05:16:29.812Z,99.99
2016-09-20T05:17:29.829Z,99.99
2016-09-20T05:18:29.817Z,99.99
2016-09-20T05:19:29.780Z,99.99
2016-09-20T05:20:29.787Z,99.99
2016-09-20T05:21:29.774Z,99.99
2016-09-20T05:22:29.763Z,99.99
2016-09-20T05:23:29.837Z,99.99
2016-09-20T05:24:29.839Z,99.99
2016-09-20T05:25:29.850Z,99.99
2016-09-20T05:26:29.808Z,99.99
2016-09-20T05:27:29.856Z,99.99
2016-09-20T05:28:29.771Z,99.99
2016-09-20T05:29:29.855Z,99.99
2016-09-20T05:30:29.810Z,99.99
2016-09-20T05:31:29.871Z,99.99
2016-09-20T05:32:29.858Z,99.99
2016-09-20T05:33:29.794Z,99.99
2016-09-20T05:34:29.947Z,99.99
2016-09-20T05:35:29.806Z,99.99
2016-09-20T05:36:29.805Z,99.99
2016-09-20T05:37:29.875Z,99.99
2016-09-20T05:38:29.804Z,99.99
2016-09-20T05:39:29.815Z,99.99
2016-09-20T05:40:29.890Z,99.99
2016-09-20T05:41:29.889Z,99.99
2016-09-20T05:42:29.892Z,99.99
2016-09-20T05:43:29.860Z,99.99
2016-09-20T05:44:29.863Z,99.99
2016-09-20T05:45:29.893Z,99.99
2016-09-20T05:46:29.908Z,99.99
2016-09-20T05:47:29.908Z,99.99
2016-09-20T05:48:29.913Z,99.99
2016-09-20T05:49:29.878Z,99.99
2016-09-20T05:50:29.843Z,99.99
2016-09-20T05:51:29.921Z,99.99
2016-09-20T05:52:29.942Z,99.99
2016-09-20T05:53:29.848Z,99.99
2016-09-20T05:54:29.916Z,99.99
2016-09-20T05:55:32.364Z,99.99
2016-09-20T05:56:32.282Z,99.99
2016-09-20T05:57:32.677Z,99.99
2016-09-20T05:58:30.967Z,99.99
2016-09-20T05:59:30.977Z,99.99
2016-09-20T06:00:29.950Z,99.99
2016-09-20T06:01:29.940Z,99.99
2016-09-20T06:02:29.905Z,99.99
2016-09-20T06:03:29.947Z,99.99
2016-09-20T06:04:29.948Z,99.99
2016-09-20T06:05:29.907Z,99.99
2016-09-20T06:06:29.961Z,99.99
2016-09-20T06:07:29.885Z,99.99
2016-09-20T06:08:29.962Z,99.99
2016-09-20T06:09:29.969Z,99.99
2016-09-20T06:10:29.965Z,99.99
2016-09-20T06:11:29.924Z,99.99
2016-09-20T06:12:29.976Z,99.99
2016-09-20T06:13:29.976Z,99.99
2016-09-20T06:14:29.982Z,99.99
2016-09-20T06:15:29.989Z,99.99
2016-09-20T06:16:29.949Z,99.99
2016-09-20T06:17:29.985Z,99.99
2016-09-20T06:18:29.919Z,99.99
2016-09-20T06:19:30.026Z,99.99
2016-09-20T06:20:29.922Z,99.99
2016-09-20T06:21:29.998Z,99.99
2016-09-20T06:22:29.925Z,99.99
2016-09-20T06:23:29.972Z,99.99
2016-09-20T06:24:30.005Z,99.99
2016-09-20T06:25:30.022Z,99.99
2016-09-20T06:26:30.015Z,99.99
2016-09-20T06:27:30.019Z,99.99
2016-09-20T06:28:30.020Z,99.99
2016-09-20T06:29:30.025Z,99.99
2016-09-20T06:30:30.022Z,99.99
2016-09-20T06:31:30.048Z,99.99
2016-09-20T06:32:30.028Z,99.99
2016-09-20T06:33:30.005Z,99.99
2016-09-20T06:34:30.029Z,99.99
2016-09-20T06:35:30.035Z,99.99
2016-09-20T06:36:30.005Z,99.99
2016-09-20T06:37:29.972Z,99.99
2016-09-20T06:38:30.052Z,99.99
2016-09-20T06:39:30.066Z,99.99
2016-09-20T06:40:30.051Z,99.99
2016-09-20T06:41:30.061Z,99.99
2016-09-20T06:42:30.091Z,99.99
2016-09-20T06:43:30.088Z,99.99
2016-09-20T06:44:30.067Z,99.99
2016-09-20T06:45:30.568Z,99.99
2016-09-20T06:46:30.079Z,99.99
2016-09-20T06:47:30.028Z,99.99
2016-09-20T06:48:31.041Z,99.99
2016-09-20T06:49:30.083Z,99.99
2016-09-20T06:50:30.086Z,99.99
2016-09-20T06:51:30.084Z,99.99
2016-09-20T06:52:30.090Z,99.99
2016-09-20T06:53:30.267Z,99.99
2016-09-20T06:54:30.032Z,99.99
2016-09-20T06:55:30.038Z,99.99
2016-09-20T06:56:30.070Z,99.99
2016-09-20T06:57:30.036Z,99.99
2016-09-20T06:58:30.112Z,99.99
2016-09-20T06:59:30.108Z,99.99
2016-09-20T07:00:30.105Z,99.99
2016-09-20T07:01:30.074Z,99.99
2016-09-20T07:02:30.131Z,99.99
2016-09-20T07:03:30.130Z,99.99
2016-09-20T07:04:30.055Z,99.99
2016-09-20T07:05:30.130Z,99.99
2016-09-20T07:06:30.136Z,99.99
2016-09-20T07:07:30.125Z,99.99
2016-09-20T07:08:30.095Z,99.99
2016-09-20T07:09:30.100Z,99.99
2016-09-20T07:10:30.095Z,99.99
2016-09-20T07:11:30.187Z,99.99
2016-09-20T07:12:30.107Z,99.99
2016-09-20T07:13:30.162Z,99.99
2016-09-20T07:14:30.204Z,99.99
2016-09-20T07:15:30.179Z,99.99
2016-09-20T07:16:30.092Z,99.99
2016-09-20T07:17:30.080Z,99.99
2016-09-20T07:18:30.142Z,99.99
2016-09-20T07:19:30.133Z,99.99
2016-09-20T07:20:30.105Z,99.99
2016-09-20T07:21:30.176Z,99.99
2016-09-20T07:22:30.167Z,99.99
2016-09-20T07:23:30.101Z,99.99
2016-09-20T07:24:30.113Z,99.99
2016-09-20T07:25:30.188Z,99.99
2016-09-20T07:26:30.117Z,99.99
2016-09-20T07:27:30.199Z,99.99
2016-09-20T07:28:30.204Z,99.99
2016-09-20T07:29:30.156Z,99.99
2016-09-20T07:30:30.206Z,99.99
2016-09-20T07:31:30.154Z,99.99
2016-09-20T07:32:30.145Z,99.99
2016-09-20T07:33:30.168Z,99.99
2016-09-20T07:34:30.214Z,99.99
2016-09-20T07:35:30.144Z,99.99
2016-09-20T07:36:30.223Z,99.99
2016-09-20T07:37:30.176Z,99.99
2016-09-20T07:38:30.224Z,99.99
2016-09-20T07:39:30.155Z,99.99
2016-09-20T07:40:30.179Z,99.99
2016-09-20T07:41:30.243Z,99.99
2016-09-20T07:42:30.243Z,99.99
2016-09-20T07:43:30.181Z,99.99
2016-09-20T07:44:30.210Z,99.99
2016-09-20T07:45:30.246Z,99.99
2016-09-20T07:46:30.251Z,99.99
2016-09-20T07:47:30.240Z,99.99
2016-09-20T07:48:30.197Z,99.99
2016-09-20T07:49:30.276Z,99.99
2016-09-20T07:50:30.270Z,99.99
2016-09-20T07:51:30.260Z,99.99
2016-09-20T07:52:30.222Z,99.99
2016-09-20T07:53:30.310Z,99.82
2016-09-20T07:54:30.270Z,99.99
2016-09-20T07:55:30.234Z,99.91
2016-09-20T07:56:30.310Z,99.87
2016-09-20T07:57:30.285Z,99.99
2016-09-20T07:58:30.282Z,99.77
2016-09-20T07:59:30.290Z,98.86
2016-09-20T08:00:30.250Z,98.76
2016-09-20T08:01:30.288Z,98.76
2016-09-20T08:02:30.312Z,98.96
2016-09-20T08:03:30.224Z,98.86
2016-09-20T08:04:30.266Z,98.19
2016-09-20T08:05:30.253Z,98.1
2016-09-20T08:06:30.877Z,97.9
2016-09-20T08:07:30.377Z,97.33
2016-09-20T08:08:30.233Z,97.61
2016-09-20T08:09:30.239Z,97.42
2016-09-20T08:10:30.389Z,97.52
2016-09-20T08:11:30.460Z,97.61
2016-09-20T08:12:31.130Z,97.61
2016-09-20T08:13:30.336Z,97.61
2016-09-20T08:14:30.317Z,96.94
2016-09-20T08:15:30.455Z,96.56
2016-09-20T08:16:30.323Z,96.66
2016-09-20T08:17:30.262Z,96.66
2016-09-20T08:18:30.638Z,96.94
2016-09-20T08:19:30.268Z,96.27
2016-09-20T08:20:30.325Z,96.37
2016-09-20T08:21:30.354Z,96.37
2016-09-20T08:22:30.355Z,96.56
2016-09-20T08:23:30.356Z,96.47
2016-09-20T08:24:30.378Z,96.47
2016-09-20T08:25:30.378Z,96.27
2016-09-20T08:26:30.289Z,96.13
2016-09-20T08:27:30.327Z,95.7
2016-09-20T08:28:30.438Z,96.03
2016-09-20T08:29:30.373Z,95.46
2016-09-20T08:30:30.335Z,95.94
2016-09-20T08:31:30.379Z,95.65
2016-09-20T08:32:30.338Z,95.56
2016-09-20T08:33:30.383Z,95.56
2016-09-20T08:34:31.172Z,95.46
2016-09-20T08:35:30.443Z,95.46
2016-09-20T08:36:30.391Z,95.65
2016-09-20T08:37:30.407Z,95.65
2016-09-20T08:38:30.366Z,94.89
2016-09-20T08:39:30.464Z,95.56
2016-09-20T08:40:30.580Z,95.75
2016-09-20T08:41:30.370Z,95.75
2016-09-20T08:42:30.335Z,95.65
2016-09-20T08:43:30.412Z,94.79
2016-09-20T08:44:30.445Z,95.07
2016-09-20T08:45:30.420Z,94.98
2016-09-20T08:46:30.436Z,93.83
2016-09-20T08:47:30.519Z,94.12
2016-09-20T08:48:30.349Z,94.12
2016-09-20T08:49:30.431Z,93.93
2016-09-20T08:50:30.360Z,94.21
2016-09-20T08:51:30.395Z,94.5
2016-09-20T08:52:30.446Z,94.35
2016-09-20T08:53:30.455Z,93.78
2016-09-20T08:54:30.461Z,94.54
2016-09-20T08:55:30.566Z,94.54
2016-09-20T08:56:30.373Z,94.26
2016-09-20T08:57:31.355Z,94.45
2016-09-20T08:58:30.474Z,93.78
2016-09-20T08:59:30.468Z,93.68
2016-09-20T09:00:31.043Z,93.63
2016-09-20T09:01:30.416Z,93.59
2016-09-20T09:02:30.474Z,93.78
2016-09-20T09:03:30.395Z,93.78
2016-09-20T09:04:30.484Z,93.49
2016-09-20T09:05:30.471Z,93.01
2016-09-20T09:06:30.518Z,93.11
2016-09-20T09:07:30.555Z,92.77
2016-09-20T09:08:30.530Z,92.58
2016-09-20T09:09:30.466Z,91.52
2016-09-20T09:10:30.491Z,91.52
2016-09-20T09:11:30.497Z,91.24
2016-09-20T09:12:30.507Z,91.09
2016-09-20T09:13:30.449Z,90.99
2016-09-20T09:14:30.467Z,90.7
2016-09-20T09:15:30.544Z,90.8
2016-09-20T09:16:30.501Z,91.19
2016-09-20T09:17:30.566Z,90.7
2016-09-20T09:18:30.515Z,90.99
2016-09-20T09:19:30.514Z,91.09
2016-09-20T09:20:30.520Z,90.61
2016-09-20T09:21:30.487Z,90.22
2016-09-20T09:22:30.481Z,89.94
2016-09-20T09:23:30.442Z,90.13
2016-09-20T09:24:30.610Z,90.32
2016-09-20T09:25:30.492Z,90.13
2016-09-20T09:26:30.473Z,89.36
2016-09-20T09:27:30.541Z,89.65
2016-09-20T09:28:30.469Z,89.26
2016-09-20T09:29:30.540Z,89.36
2016-09-20T09:30:30.551Z,88.88
2016-09-20T09:31:30.532Z,88.25
2016-09-20T09:32:30.558Z,87.68
2016-09-20T09:33:30.576Z,87.58
2016-09-20T09:34:30.630Z,86.72
2016-09-20T09:35:30.596Z,86.72
2016-09-20T09:36:30.563Z,87.15
2016-09-20T09:37:30.573Z,86.09
2016-09-20T09:38:30.576Z,85.61
2016-09-20T09:39:30.602Z,84.55
2016-09-20T09:40:30.629Z,83.73
2016-09-20T09:41:30.586Z,84.26
2016-09-20T09:42:30.647Z,84.45
2016-09-20T09:43:30.531Z,85.28
2016-09-20T09:44:30.629Z,85.28
2016-09-20T09:45:30.551Z,85.28
2016-09-20T09:46:30.608Z,85.66
2016-09-20T09:47:30.609Z,85.75
2016-09-20T09:48:30.601Z,85.47
2016-09-20T09:49:30.614Z,84.84
2016-09-20T09:50:30.844Z,84.26
2016-09-20T09:51:30.608Z,83.69
2016-09-20T09:52:30.621Z,82.82
2016-09-20T09:53:30.580Z,83.69
2016-09-20T09:54:30.583Z,83.78
2016-09-20T09:55:30.712Z,83.93
2016-09-20T09:56:30.548Z,83.69
2016-09-20T09:57:30.624Z,83.01
2016-09-20T09:58:30.684Z,82.87
2016-09-20T09:59:30.603Z,82.63
2016-09-20T10:00:30.741Z,83.36
2016-09-20T10:01:30.622Z,82.97
2016-09-20T10:02:30.594Z,82.43
2016-09-20T10:03:30.617Z,81.76
2016-09-20T10:04:30.625Z,81.19
2016-09-20T10:05:30.757Z,80.46
2016-09-20T10:06:30.613Z,81.04
2016-09-20T10:07:30.703Z,80.84
2016-09-20T10:08:30.686Z,81.13
2016-09-20T10:09:30.629Z,81.52
2016-09-20T10:10:30.658Z,81.13
2016-09-20T10:11:30.684Z,80.94
2016-09-20T10:12:30.639Z,81.67
2016-09-20T10:13:30.699Z,81.61
2016-09-20T10:14:30.675Z,81.04
2016-09-20T10:15:30.698Z,80.75
2016-09-20T10:16:30.676Z,79.92
2016-09-20T10:17:30.676Z,79.82
2016-09-20T10:18:30.704Z,79.44
2016-09-20T10:19:30.722Z,79.48
2016-09-20T10:20:30.650Z,79.28
2016-09-20T10:21:30.658Z,79.28
2016-09-20T10:22:30.694Z,79.28
2016-09-20T10:23:30.649Z,80.02
2016-09-20T10:24:30.703Z,79.63
2016-09-20T10:25:30.714Z,79.53
2016-09-20T10:26:30.739Z,79.73
2016-09-20T10:27:30.658Z,78.28
2016-09-20T10:28:30.747Z,77.94
2016-09-20T10:29:30.724Z,78.71
2016-09-20T10:30:30.652Z,78.58
2016-09-20T10:31:30.668Z,77.9
2016-09-20T10:32:30.671Z,78.58
2016-09-20T10:33:30.670Z,78.19
2016-09-20T10:34:30.751Z,78.77
2016-09-20T10:35:30.672Z,78.96
2016-09-20T10:36:30.676Z,78.28
2016-09-20T10:37:30.837Z,78.13
2016-09-20T10:38:30.728Z,77.59
2016-09-20T10:39:30.762Z,76.67
2016-09-20T10:40:30.683Z,76.38
2016-09-20T10:41:30.824Z,77.06
2016-09-20T10:42:30.768Z,76.67
2016-09-20T10:43:30.733Z,76.09
2016-09-20T10:44:30.696Z,75.84
2016-09-20T10:45:30.830Z,75.45
2016-09-20T10:46:30.827Z,75.26
2016-09-20T10:47:30.792Z,73.85
2016-09-20T10:48:30.695Z,73.57
2016-09-20T10:49:30.813Z,73.47
2016-09-20T10:50:30.734Z,74.58
2016-09-20T10:51:30.817Z,74.49
2016-09-20T10:52:30.788Z,74.97
2016-09-20T10:53:30.834Z,74.78
2016-09-20T10:54:31.049Z,74.68
2016-09-20T10:55:30.801Z,75.16
2016-09-20T10:56:30.819Z,74.4
2016-09-20T10:57:30.811Z,73.72
2016-09-20T10:58:31.001Z,74.01
2016-09-20T10:59:31.393Z,73.14
2016-09-20T11:00:30.793Z,73.05
2016-09-20T11:01:30.731Z,72.18
2016-09-20T11:02:30.966Z,71.64
2016-09-20T11:03:30.804Z,71.44
2016-09-20T11:04:30.915Z,72.21
2016-09-20T11:05:30.797Z,72.6
2016-09-20T11:06:30.873Z,72.21
2016-09-20T11:07:30.808Z,70.86
2016-09-20T11:08:30.799Z,69.64
2016-09-20T11:09:30.836Z,70.42
2016-09-20T11:10:30.945Z,70.09
2016-09-20T11:11:30.767Z,71.06
2016-09-20T11:12:30.854Z,70.19
2016-09-20T11:13:30.846Z,70.48
2016-09-20T11:14:30.907Z,69.32
2016-09-20T11:15:30.847Z,68.93
2016-09-20T11:16:30.823Z,68.39
2016-09-20T11:17:30.843Z,67.91
2016-09-20T11:18:30.875Z,68.29
2016-09-20T11:19:30.785Z,68.49
2016-09-20T11:20:30.876Z,67.62
2016-09-20T11:21:30.885Z,68.42
2016-09-20T11:22:30.797Z,69.45
2016-09-20T11:23:30.961Z,69.7
2016-09-20T11:24:30.876Z,69.99
2016-09-20T11:25:30.900Z,71.24
2016-09-20T11:26:30.804Z,71.24
2016-09-20T11:27:30.887Z,70.76
2016-09-20T11:28:30.903Z,69.83
2016-09-20T11:29:30.882Z,68.9
2016-09-20T11:30:30.861Z,69.09
2016-09-20T11:31:30.909Z,69.73
2016-09-20T11:32:31.088Z,70.95
2016-09-20T11:33:30.897Z,70.66
2016-09-20T11:34:30.838Z,70.41
2016-09-20T11:35:30.923Z,69.09
2016-09-20T11:36:30.921Z,68.32
2016-09-20T11:37:30.855Z,68.26
2016-09-20T11:38:30.938Z,68.32
2016-09-20T11:39:30.924Z,67.55
2016-09-20T11:40:30.891Z,66.69
2016-09-20T11:41:30.956Z,66.11
2016-09-20T11:42:30.862Z,65.05
2016-09-20T11:43:31.544Z,64.95
2016-09-20T11:44:42.689Z,65.88
2016-09-20T11:46:13.738Z,66.27
2016-09-20T11:46:52.209Z,65.4
2016-09-20T11:47:54.168Z,64.98
2016-09-20T11:48:30.896Z,68.48
2016-09-20T11:49:30.945Z,69.89
2016-09-20T11:50:30.952Z,70.52
2016-09-20T11:51:30.966Z,70.17
2016-09-20T11:52:30.967Z,68.13
2016-09-20T11:53:31.022Z,68.22
2016-09-20T11:54:30.930Z,68.16
2016-09-20T11:55:30.973Z,67.65
2016-09-20T11:56:30.900Z,66.42
2016-09-20T11:57:30.979Z,66.81
2016-09-20T11:58:31.155Z,67.39
2016-09-20T11:59:30.998Z,69.57
2016-09-20T12:00:30.974Z,68.86
2016-09-20T12:01:30.914Z,68.29
2016-09-20T12:02:31.026Z,67.42
2016-09-20T12:03:30.970Z,66.94
2016-09-20T12:04:30.989Z,66.49
2016-09-20T12:05:30.960Z,66.88
2016-09-20T12:06:31.017Z,68.86
2016-09-20T12:07:30.970Z,69.98
2016-09-20T12:08:31.031Z,70.84
2016-09-20T12:09:31.643Z,72.19
2016-09-20T12:10:31.205Z,72.34
2016-09-20T12:11:31.333Z,71.71
2016-09-20T12:12:31.065Z,70.94
2016-09-20T12:13:31.280Z,69.79
2016-09-20T12:14:31.019Z,69.6
2016-09-20T12:15:31.029Z,69.98
2016-09-20T12:16:31.029Z,70.72
2016-09-20T12:17:31.019Z,70.9
2016-09-20T12:18:30.969Z,70.33
2016-09-20T12:19:30.967Z,69.02
2016-09-20T12:20:31.045Z,67.32
2016-09-20T12:21:30.993Z,66.84
2016-09-20T12:22:30.994Z,66.94
2016-09-20T12:23:31.097Z,66.39
2016-09-20T12:24:31.061Z,66.58
2016-09-20T12:25:31.053Z,65.94
2016-09-20T12:26:31.023Z,65.17
2016-09-20T12:27:31.049Z,63.85
2016-09-20T12:28:31.062Z,64.5
2016-09-20T12:29:31.088Z,64.59
2016-09-20T12:30:31.075Z,64.98
2016-09-20T12:31:31.006Z,65.85
2016-09-20T12:32:31.074Z,66.42
2016-09-20T12:33:31.008Z,68.22
2016-09-20T12:34:31.088Z,69.44
2016-09-20T12:35:31.096Z,68.96
2016-09-20T12:36:31.211Z,68.13
2016-09-20T12:37:31.053Z,67.39
2016-09-20T12:38:31.060Z,66.71
2016-09-20T12:39:31.048Z,66.65
2016-09-20T12:40:31.057Z,66.17
2016-09-20T12:41:31.078Z,66.94
2016-09-20T12:42:31.067Z,67.71
2016-09-20T12:43:31.107Z,69.18
2016-09-20T12:44:31.102Z,68.99
2016-09-20T12:45:31.033Z,70.05
2016-09-20T12:46:31.081Z,71.33
2016-09-20T12:47:31.136Z,69.98
2016-09-20T12:48:31.040Z,69.4
2016-09-20T12:49:31.074Z,68.83
2016-09-20T12:50:31.127Z,67.22
2016-09-20T12:51:31.141Z,66.78
2016-09-20T12:52:31.288Z,66.71
2016-09-20T12:53:31.131Z,67.65
2016-09-20T12:54:31.098Z,66.97